createdAt,value
2022-10-19T00:00:43.218Z,10.30
2022-10-19T00:03:31.914Z,8.20
2022-10-19T00:06:30.400Z,8.50
2022-10-19T00:09:19.064Z,10.60
2022-10-19T00:12:05.753Z,11.50
2022-10-19T00:14:51.743Z,6.80
2022-10-19T00:17:38.177Z,11.40
2022-10-19T00:20:24.838Z,9.60
2022-10-19T00:23:11.179Z,10.40
2022-10-19T00:25:58.048Z,6.30
2022-10-19T00:28:44.386Z,8.70
2022-10-19T00:31:30.581Z,9.80
2022-10-19T00:34:17.669Z,8.00
2022-10-19T00:37:03.922Z,7.40
2022-10-19T00:42:37.391Z,8.20
2022-10-19T00:45:24.034Z,7.70
2022-10-19T00:48:18.677Z,9.30
2022-10-19T00:51:04.826Z,6.50
2022-10-19T00:53:51.461Z,9.20
2022-10-19T00:56:41.046Z,7.80
2022-10-19T00:59:31.260Z,6.00
2022-10-19T01:02:17.954Z,9.40
2022-10-19T01:05:04.770Z,7.70
2022-10-19T01:07:51.756Z,9.40
2022-10-19T01:11:39.567Z,7.10
2022-10-19T01:15:04.343Z,7.40
2022-10-19T01:18:14.906Z,6.30
2022-10-19T01:21:34.986Z,5.90
2022-10-19T01:24:27.119Z,6.20
2022-10-19T01:27:30.001Z,7.30
2022-10-19T01:30:42.017Z,6.70
2022-10-19T01:33:34.223Z,6.90
2022-10-19T01:36:32.255Z,7.50
2022-10-19T01:39:53.201Z,9.40
2022-10-19T01:43:03.719Z,7.10
2022-10-19T01:45:59.911Z,5.80
2022-10-19T01:48:56.438Z,7.00
2022-10-19T01:51:51.094Z,5.70
2022-10-19T01:54:42.570Z,6.30
2022-10-19T01:57:36.712Z,10.10
2022-10-19T02:00:25.293Z,5.60
2022-10-19T02:03:13.059Z,7.00
2022-10-19T02:06:01.649Z,6.70
2022-10-19T02:08:51.457Z,7.70
2022-10-19T02:11:38.243Z,6.80
2022-10-19T02:14:37.705Z,7.70
2022-10-19T02:17:32.927Z,5.00
2022-10-19T02:20:19.923Z,5.80
2022-10-19T02:23:07.090Z,5.30
2022-10-19T02:25:55.315Z,6.00
2022-10-19T02:28:45.326Z,9.20
2022-10-19T02:31:32.107Z,7.70
2022-10-19T02:34:18.423Z,5.30
2022-10-19T02:37:05.536Z,5.10
2022-10-19T02:39:51.715Z,4.00
2022-10-19T02:43:00.133Z,6.10
2022-10-19T02:45:59.789Z,5.20
2022-10-19T02:48:49.313Z,5.60
2022-10-19T02:51:39.464Z,5.40
2022-10-19T02:54:26.696Z,6.20
2022-10-19T02:57:15.589Z,7.00
2022-10-19T03:00:03.426Z,7.30
2022-10-19T03:02:49.449Z,4.40
2022-10-19T03:05:35.669Z,4.90
2022-10-19T03:08:22.149Z,3.40
2022-10-19T03:11:08.554Z,6.30
2022-10-19T03:13:54.886Z,5.60
2022-10-19T03:16:41.264Z,4.80
2022-10-19T03:19:28.023Z,5.30
2022-10-19T03:22:14.819Z,4.10
2022-10-19T03:25:01.067Z,4.40
2022-10-19T03:27:47.938Z,5.40
2022-10-19T03:30:34.456Z,4.60
2022-10-19T03:33:21.307Z,5.20
2022-10-19T03:36:31.280Z,4.60
2022-10-19T03:39:18.074Z,4.70
2022-10-19T03:42:04.668Z,4.60
2022-10-19T03:44:51.152Z,5.20
2022-10-19T03:47:37.580Z,4.00
2022-10-19T03:50:24.190Z,5.80
2022-10-19T03:53:10.659Z,5.10
2022-10-19T03:56:08.191Z,5.30
2022-10-19T03:58:57.119Z,5.50
2022-10-19T04:01:45.717Z,4.70
2022-10-19T04:04:31.613Z,5.80
2022-10-19T04:07:17.833Z,5.60
2022-10-19T04:10:04.850Z,6.20
2022-10-19T04:12:53.787Z,4.50
2022-10-19T04:15:40.561Z,4.50
2022-10-19T04:18:27.034Z,4.20
2022-10-19T04:21:36.867Z,4.40
2022-10-19T04:24:23.223Z,4.70
2022-10-19T04:27:09.717Z,5.30
2022-10-19T04:29:56.029Z,5.20
2022-10-19T04:32:42.034Z,3.80
2022-10-19T04:35:28.262Z,3.90
2022-10-19T04:38:14.779Z,5.00
2022-10-19T04:41:10.470Z,6.50
2022-10-19T04:43:59.460Z,4.50
2022-10-19T04:46:45.918Z,5.10
2022-10-19T04:49:32.053Z,6.50
2022-10-19T04:52:26.155Z,7.10
2022-10-19T04:55:12.510Z,5.60
2022-10-19T04:57:58.780Z,4.70
2022-10-19T05:00:45.010Z,4.50
2022-10-19T05:03:31.504Z,6.30
2022-10-19T05:06:17.964Z,5.90
2022-10-19T05:09:04.510Z,4.00
2022-10-19T05:11:51.035Z,6.00
2022-10-19T05:14:39.149Z,5.40
2022-10-19T05:17:32.233Z,5.50
2022-10-19T05:20:18.737Z,6.10
2022-10-19T05:23:07.268Z,5.20
2022-10-19T05:26:04.777Z,7.00
2022-10-19T05:28:57.428Z,6.00
2022-10-19T05:31:43.734Z,6.30
2022-10-19T05:34:30.156Z,6.00
2022-10-19T05:37:16.927Z,6.70
2022-10-19T05:40:03.709Z,4.90
2022-10-19T05:42:49.905Z,6.80
2022-10-19T05:45:36.363Z,5.50
2022-10-19T05:48:23.427Z,7.80
2022-10-19T05:51:13.054Z,10.20
2022-10-19T05:53:59.409Z,6.80
2022-10-19T05:56:46.906Z,5.90
2022-10-19T05:59:33.587Z,7.00
2022-10-19T06:02:20.311Z,5.10
2022-10-19T06:05:07.267Z,6.70
2022-10-19T06:07:53.782Z,6.90
2022-10-19T06:10:40.352Z,6.10
2022-10-19T06:13:26.839Z,5.60
2022-10-19T06:16:15.568Z,5.60
2022-10-19T06:19:01.799Z,7.50
2022-10-19T06:21:48.168Z,5.80
2022-10-19T06:24:34.748Z,5.40
2022-10-19T06:27:20.966Z,7.00
2022-10-19T06:30:08.218Z,7.70
2022-10-19T06:32:54.550Z,8.90
2022-10-19T06:35:42.450Z,8.00
2022-10-19T06:38:28.695Z,4.90
2022-10-19T06:41:16.237Z,5.30
2022-10-19T06:44:02.281Z,8.90
2022-10-19T06:46:48.686Z,6.70
2022-10-19T06:49:35.398Z,6.00
2022-10-19T06:52:21.923Z,9.70
2022-10-19T06:55:09.018Z,6.10
2022-10-19T06:57:55.425Z,6.90
2022-10-19T07:00:42.042Z,5.30
2022-10-19T07:03:29.819Z,6.50
2022-10-19T07:06:16.121Z,6.00
2022-10-19T07:09:03.252Z,5.80
2022-10-19T07:11:49.644Z,7.10
2022-10-19T07:14:39.033Z,4.70
2022-10-19T07:17:25.663Z,8.10
2022-10-19T07:20:11.911Z,6.40
2022-10-19T07:22:58.327Z,5.10
2022-10-19T07:25:44.943Z,6.20
2022-10-19T07:28:32.437Z,5.50
2022-10-19T07:31:23.511Z,4.50
2022-10-19T07:34:13.050Z,5.60
2022-10-19T07:36:59.655Z,6.60
2022-10-19T07:39:45.907Z,7.60
2022-10-19T07:42:32.367Z,7.20
2022-10-19T07:45:18.835Z,4.60
2022-10-19T07:48:05.635Z,4.90
2022-10-19T07:50:51.925Z,5.50
2022-10-19T07:53:38.834Z,7.30
2022-10-19T07:56:26.962Z,6.10
2022-10-19T07:59:15.642Z,4.70
2022-10-19T08:02:04.170Z,6.00
2022-10-19T08:05:09.118Z,5.60
2022-10-19T08:07:57.411Z,5.10
2022-10-19T08:10:44.066Z,6.50
2022-10-19T08:13:30.025Z,11.20
2022-10-19T08:16:36.783Z,10.80
2022-10-19T08:19:23.766Z,15.20
2022-10-19T08:22:10.683Z,8.10
2022-10-19T08:24:56.869Z,6.00
2022-10-19T08:27:43.237Z,5.80
2022-10-19T08:30:29.837Z,6.00
2022-10-19T08:33:16.135Z,5.70
2022-10-19T08:36:08.280Z,5.50
2022-10-19T08:38:54.894Z,21.50
2022-10-19T08:42:23.515Z,7.40
2022-10-19T08:48:42.346Z,7.40
2022-10-19T08:51:38.684Z,6.00
2022-10-19T08:54:40.082Z,8.00
2022-10-19T08:58:04.983Z,8.00
2022-10-19T09:01:13.531Z,7.40
2022-10-19T09:04:14.616Z,6.30
2022-10-19T09:07:28.819Z,5.70
2022-10-19T09:10:15.268Z,6.60
2022-10-19T09:14:03.782Z,5.30
2022-10-19T09:16:48.238Z,5.10
2022-10-19T09:19:37.091Z,6.80
2022-10-19T09:22:31.832Z,4.90
2022-10-19T09:25:22.603Z,4.80
2022-10-19T09:28:39.831Z,3.90
2022-10-19T09:31:42.840Z,5.10
2022-10-19T09:34:37.750Z,5.40
2022-10-19T09:37:26.572Z,4.70
2022-10-19T09:40:27.740Z,4.50
2022-10-19T09:43:21.197Z,4.50
2022-10-19T09:46:20.548Z,4.10
2022-10-19T09:49:07.450Z,6.70
2022-10-19T09:51:54.661Z,5.80
2022-10-19T09:54:41.270Z,5.10
2022-10-19T09:57:27.939Z,5.90
2022-10-19T10:00:24.948Z,5.00
2022-10-19T10:03:42.933Z,5.10
2022-10-19T10:06:29.309Z,5.40
2022-10-19T10:09:25.771Z,6.20
2022-10-19T10:12:15.487Z,5.10
2022-10-19T10:15:05.991Z,4.80
2022-10-19T10:17:52.924Z,4.70
2022-10-19T10:23:58.826Z,6.40
2022-10-19T10:26:53.924Z,6.00
2022-10-19T10:32:49.771Z,7.90
2022-10-19T10:35:36.694Z,5.00
2022-10-19T10:38:38.683Z,5.20
2022-10-19T10:41:28.416Z,7.00
2022-10-19T10:44:29.196Z,5.30
2022-10-19T10:47:20.051Z,7.50
2022-10-19T10:50:07.304Z,5.50
2022-10-19T10:53:06.580Z,5.30
2022-10-19T10:55:56.114Z,6.00
2022-10-19T10:58:52.733Z,6.10
2022-10-19T11:02:12.340Z,4.20
2022-10-19T11:05:17.015Z,6.70
2022-10-19T11:08:18.419Z,5.30
2022-10-19T11:11:26.998Z,6.30
2022-10-19T11:14:45.744Z,5.30
2022-10-19T11:17:38.722Z,4.10
2022-10-19T11:20:30.311Z,4.00
2022-10-19T11:23:41.708Z,6.30
2022-10-19T11:26:53.114Z,5.40
2022-10-19T11:29:57.937Z,4.30
2022-10-19T11:33:13.042Z,4.40
2022-10-19T11:36:15.144Z,9.00
2022-10-19T11:39:16.398Z,5.30
2022-10-19T11:42:42.092Z,5.00
2022-10-19T11:45:49.254Z,5.10
2022-10-19T11:48:56.699Z,7.50
2022-10-19T11:58:46.385Z,7.50
2022-10-19T12:09:02.692Z,7.50
2022-10-19T12:12:12.190Z,4.50
2022-10-19T12:15:10.620Z,5.90
2022-10-19T12:18:08.195Z,4.20
2022-10-19T12:21:01.772Z,5.90
2022-10-19T12:23:48.365Z,6.30
2022-10-19T12:26:36.644Z,4.40
2022-10-19T12:29:46.634Z,7.30
2022-10-19T12:32:45.613Z,4.90
2022-10-19T12:36:01.920Z,5.10
2022-10-19T12:39:12.899Z,5.10
2022-10-19T12:42:38.823Z,5.90
2022-10-19T12:45:34.388Z,4.90
2022-10-19T12:48:22.350Z,5.00
2022-10-19T12:51:15.261Z,5.70
2022-10-19T12:54:09.056Z,5.40
2022-10-19T12:56:57.665Z,4.70
2022-10-19T12:59:44.328Z,4.50
2022-10-19T13:02:36.280Z,4.80
2022-10-19T13:05:27.144Z,5.20
2022-10-19T13:08:41.612Z,4.40
2022-10-19T13:11:28.336Z,4.20
2022-10-19T13:14:14.467Z,13.50
2022-10-19T13:17:02.495Z,6.10
2022-10-19T13:19:49.113Z,7.70
2022-10-19T13:22:35.631Z,5.20
2022-10-19T13:25:40.253Z,7.80
2022-10-19T13:28:26.249Z,4.70
2022-10-19T13:31:28.998Z,4.20
2022-10-19T13:34:15.978Z,14.90
2022-10-19T13:37:04.033Z,7.30
2022-10-19T13:39:50.347Z,6.80
2022-10-19T13:42:37.368Z,5.50
2022-10-19T13:45:24.365Z,5.80
2022-10-19T13:48:25.949Z,5.40
2022-10-19T13:51:47.346Z,6.00
2022-10-19T13:55:17.420Z,6.40
2022-10-19T13:58:24.890Z,4.70
2022-10-19T14:01:31.722Z,4.30
2022-10-19T14:05:07.239Z,5.10
2022-10-19T14:08:37.105Z,8.00
2022-10-19T14:12:06.402Z,4.50
2022-10-19T14:14:55.768Z,5.10
2022-10-19T14:17:42.601Z,6.90
2022-10-19T14:20:38.455Z,6.40
2022-10-19T14:23:30.998Z,8.20
2022-10-19T14:26:22.753Z,6.40
2022-10-19T14:29:12.933Z,6.60
2022-10-19T14:31:59.822Z,4.40
2022-10-19T14:34:48.346Z,4.90
2022-10-19T14:37:36.302Z,10.10
2022-10-19T14:40:31.944Z,10.70
2022-10-19T14:43:26.675Z,6.00
2022-10-19T14:46:15.977Z,7.30
2022-10-19T14:49:10.639Z,8.40
2022-10-19T14:52:07.865Z,12.50
2022-10-19T14:55:03.628Z,8.70
2022-10-19T14:57:53.485Z,8.00
2022-10-19T15:00:50.417Z,7.90
2022-10-19T15:03:50.134Z,6.40
2022-10-19T15:06:41.923Z,6.90
2022-10-19T15:09:48.121Z,7.20
2022-10-19T15:12:41.971Z,7.60
2022-10-19T15:15:34.563Z,6.00
2022-10-19T15:18:47.840Z,5.50
2022-10-19T15:21:45.256Z,9.00
2022-10-19T15:24:32.895Z,9.10
2022-10-19T15:27:27.948Z,7.80
2022-10-19T15:30:27.152Z,9.50
2022-10-19T15:33:16.732Z,8.10
2022-10-19T15:36:19.012Z,8.30
2022-10-19T15:39:32.907Z,8.10
2022-10-19T15:42:43.540Z,8.40
2022-10-19T15:46:13.482Z,10.40
2022-10-19T15:49:40.013Z,10.00
2022-10-19T15:52:33.120Z,9.10
2022-10-19T15:55:22.015Z,9.40
2022-10-19T15:58:13.176Z,7.40
2022-10-19T16:00:59.450Z,6.90
2022-10-19T16:03:46.360Z,8.10
2022-10-19T16:06:36.062Z,13.20
2022-10-19T16:09:28.125Z,9.30
2022-10-19T16:12:14.745Z,11.40
2022-10-19T16:15:01.566Z,8.20
2022-10-19T16:17:58.889Z,8.80
2022-10-19T16:20:45.595Z,8.20
2022-10-19T16:23:40.960Z,7.90
2022-10-19T16:26:31.415Z,7.10
2022-10-19T16:29:18.020Z,7.40
2022-10-19T16:32:04.819Z,6.30
2022-10-19T16:34:51.451Z,6.60
2022-10-19T16:37:42.703Z,8.70
2022-10-19T16:40:32.111Z,8.40
2022-10-19T16:43:18.830Z,7.90
2022-10-19T16:46:06.270Z,7.00
2022-10-19T16:48:53.456Z,9.50
2022-10-19T16:51:41.903Z,9.30
2022-10-19T16:54:33.479Z,14.10
2022-10-19T16:57:20.441Z,13.50
2022-10-19T17:00:09.039Z,8.20
2022-10-19T17:02:55.674Z,9.80
2022-10-19T17:05:42.528Z,10.80
2022-10-19T17:08:36.894Z,9.10
2022-10-19T17:11:28.897Z,11.90
2022-10-19T17:14:15.885Z,10.20
2022-10-19T17:17:02.812Z,9.90
2022-10-19T17:19:51.880Z,7.80
2022-10-19T17:22:38.689Z,7.50
2022-10-19T17:25:25.577Z,12.00
2022-10-19T17:28:12.767Z,18.70
2022-10-19T17:31:07.701Z,20.00
2022-10-19T17:33:54.801Z,20.30
2022-10-19T17:36:45.291Z,21.70
2022-10-19T17:39:32.102Z,25.70
2022-10-19T17:42:18.758Z,24.80
2022-10-19T17:45:06.354Z,28.50
2022-10-19T17:47:53.013Z,28.90
2022-10-19T17:50:39.218Z,22.00
2022-10-19T17:53:26.179Z,22.50
2022-10-19T17:56:14.964Z,18.10
2022-10-19T17:59:04.293Z,16.60
2022-10-19T18:02:10.228Z,14.60
2022-10-19T18:04:57.969Z,15.90
2022-10-19T18:07:48.664Z,15.90
2022-10-19T18:10:36.373Z,14.10
2022-10-19T18:13:23.026Z,14.10
2022-10-19T18:16:27.041Z,13.40
2022-10-19T18:19:15.071Z,11.80
2022-10-19T18:22:02.166Z,13.40
2022-10-19T18:24:49.025Z,10.70
2022-10-19T18:27:35.911Z,9.80
2022-10-19T18:30:22.468Z,9.50
2022-10-19T18:33:09.204Z,12.60
2022-10-19T18:35:57.910Z,12.00
2022-10-19T18:38:44.428Z,12.10
2022-10-19T18:41:31.677Z,13.60
2022-10-19T18:44:23.465Z,12.20
2022-10-19T18:47:12.958Z,14.00
2022-10-19T18:49:59.372Z,17.30
2022-10-19T18:52:45.814Z,17.30
2022-10-19T18:55:32.908Z,18.00
2022-10-19T18:58:19.156Z,16.40
2022-10-19T19:01:12.398Z,16.70
2022-10-19T19:04:06.986Z,17.50
2022-10-19T19:06:53.379Z,18.60
2022-10-19T19:09:40.247Z,19.90
2022-10-19T19:12:26.954Z,19.00
2022-10-19T19:15:13.519Z,23.30
2022-10-19T19:17:59.844Z,18.90
2022-10-19T19:20:46.400Z,20.10
2022-10-19T19:23:33.049Z,19.20
2022-10-19T19:26:21.923Z,19.20
2022-10-19T19:29:08.639Z,14.40
2022-10-19T19:31:55.065Z,16.20
2022-10-19T19:34:45.835Z,15.90
2022-10-19T19:37:35.178Z,12.30
2022-10-19T19:40:22.630Z,11.20
2022-10-19T19:43:10.302Z,11.80
2022-10-19T19:46:04.761Z,13.50
2022-10-19T19:49:00.612Z,12.30
2022-10-19T19:51:49.121Z,10.70
2022-10-19T19:54:35.528Z,11.50
2022-10-19T19:57:22.075Z,11.10
2022-10-19T20:00:09.547Z,9.80
2022-10-19T20:02:59.655Z,11.10
2022-10-19T20:05:46.746Z,14.00
2022-10-19T20:08:35.541Z,12.90
2022-10-19T20:11:24.213Z,13.70
2022-10-19T20:14:11.777Z,16.70
2022-10-19T20:16:58.612Z,19.70
2022-10-19T20:19:45.052Z,15.40
2022-10-19T20:22:31.693Z,15.10
2022-10-19T20:25:29.610Z,15.50
2022-10-19T20:28:19.887Z,14.40
2022-10-19T20:31:08.609Z,14.70
2022-10-19T20:33:56.553Z,13.80
2022-10-19T20:36:43.053Z,12.20
2022-10-19T20:39:32.156Z,10.10
2022-10-19T20:42:18.809Z,12.50
2022-10-19T20:45:05.974Z,14.10
2022-10-19T20:47:52.396Z,10.80
2022-10-19T20:50:42.240Z,13.40
2022-10-19T20:53:28.853Z,12.10
2022-10-19T20:56:22.619Z,10.80
2022-10-19T20:59:16.601Z,12.80
2022-10-19T21:02:02.849Z,13.20
2022-10-19T21:04:51.764Z,11.70
2022-10-19T21:07:38.278Z,12.20
2022-10-19T21:10:24.857Z,11.70
2022-10-19T21:13:11.106Z,10.20
2022-10-19T21:15:57.575Z,12.40
2022-10-19T21:18:46.715Z,9.50
2022-10-19T21:21:40.136Z,12.50
2022-10-19T21:24:33.753Z,9.80
2022-10-19T21:27:20.279Z,9.00
2022-10-19T21:30:07.892Z,11.10
2022-10-19T21:32:54.018Z,10.10
2022-10-19T21:35:40.264Z,10.00
2022-10-19T21:38:26.898Z,9.00
2022-10-19T21:41:20.771Z,10.20
2022-10-19T21:44:10.201Z,12.20
2022-10-19T21:46:56.553Z,9.90
2022-10-19T21:49:42.843Z,9.90
2022-10-19T21:52:29.510Z,9.60
2022-10-19T21:55:16.157Z,9.10
2022-10-19T21:58:04.504Z,11.50
2022-10-19T22:00:51.021Z,10.90
2022-10-19T22:03:37.673Z,11.80
2022-10-19T22:06:29.505Z,8.90
2022-10-19T22:09:22.687Z,9.60
2022-10-19T22:12:08.994Z,10.20
2022-10-19T22:14:55.398Z,9.80
2022-10-19T22:17:42.291Z,10.10
2022-10-19T22:20:28.924Z,8.80
2022-10-19T22:23:14.827Z,10.30
2022-10-19T22:26:01.102Z,9.10
2022-10-19T22:28:47.991Z,11.80
2022-10-19T22:31:36.009Z,10.50
2022-10-19T22:34:22.215Z,11.30
2022-10-19T22:37:08.510Z,8.50
2022-10-19T22:39:54.863Z,8.80
2022-10-19T22:43:52.825Z,9.30
2022-10-19T22:46:58.230Z,9.10
2022-10-19T22:49:47.117Z,9.60
2022-10-19T22:52:33.790Z,7.60
2022-10-19T22:55:21.190Z,8.50
2022-10-19T22:58:08.416Z,9.80
2022-10-19T23:01:08.504Z,7.40
2022-10-19T23:03:55.291Z,7.50
2022-10-19T23:06:41.617Z,9.20
2022-10-19T23:09:27.543Z,8.10
2022-10-19T23:12:13.975Z,7.80
2022-10-19T23:15:00.257Z,12.90
2022-10-19T23:17:46.242Z,8.20
2022-10-19T23:20:32.330Z,9.60
2022-10-19T23:23:18.594Z,8.70
2022-10-19T23:26:04.698Z,9.30
2022-10-19T23:28:51.760Z,7.50
2022-10-19T23:31:37.978Z,7.70
2022-10-19T23:34:24.423Z,7.60
2022-10-19T23:37:10.587Z,8.00
2022-10-19T23:39:56.721Z,7.90
2022-10-19T23:42:43.434Z,7.80
2022-10-19T23:45:30.072Z,9.50
2022-10-19T23:48:16.549Z,8.60
2022-10-19T23:51:12.811Z,7.80
2022-10-19T23:53:59.345Z,9.80
2022-10-19T23:56:45.850Z,8.30
2022-10-19T23:59:32.230Z,6.60
